Aérodrome :
LOGIN :

S'inscrire | Disclaimer

   EN    FR    IT 

 










Légende :    VFR   VFR Marginal   IFR   IFR Intensif   IFR Très Intensif
Visi : 
Plafond : 
>= 8 km
>= 3000ft
5 à 8 km
1000 à 3000 ft
1500m à 5 km
500 à 1000 ft
800 à 1500m
200 à 500 ft
< 800m
< 200 ft
Symboles :   Orages  Brouillard  Fortes neiges  Fortes précipitations  Vent > 20 kt
SIGMETs :   Divers  Orages  Givrage  Turbulence  Onde Orograph.  Cendres Volcan.







- Altitude de l'aérodrome : 160 ft
- Code IATA : LRT
- Voir les cartes d'approche


LFRH - Lorient Lann Bihoue

DERNIER METAR :
  • 231630Z AUTO 25015KT 4900 -DZ BR OVC003 15/15 Q1022 TEMPO RADZ

METARs EXPIRÉS :
  • 231600Z AUTO 24015KT 4500 -DZ BR OVC003 15/15 Q1022 TEMPO RADZ
  • 231530Z AUTO 25014KT 3500 DZ BR OVC003 15/15 Q1022 TEMPO RADZ
  • 231500Z AUTO 24015KT 4500 -RA BR OVC003 15/15 Q1022 TEMPO RADZ
  • 231430Z AUTO 24015KT 2700 -DZ BR OVC003 15/15 Q1023 TEMPO 3000 RADZ
  • 231400Z AUTO 24015KT 2300 -DZ BR OVC003 15/14 Q1023 TEMPO 3000 RADZ

TAF TAF LFRH
Valide du 23 à 12h jusqu'au 24 à 12h UTC


231100Z 2312/2412 23016KT 6000 DZ BKN006 OVC012
TEMPO 2312/2401 3000 RADZ BKN003 OVC007
BECMG 2402/2404 23008KT 6000 NSW BKN003 OVC006
BECMG 2409/2412 19005KT 9999 BKN010
Pas de NOTAMs connus pour ce terrain.



MET'MAP, la Météo Aéronautique d'un coup d'oeil ! - Copyright ORBIFLY Décembre 2007 - Disclaimer

ORBIFLY MET'MAP TEAM :

Programmation & Développement : Alexandra Zaïnal
Conception & Développement : Baudouin d'Aumeries
Co-Programmation & Développement : Marc-Olivier Méhu
Soutien technique & logistique : Manuel Goepfert

Contact : metmap@orbifly.com




SOURCES & CREDITS :

   NOAA